Alm Zurich — V7NG2 — position and weather

sailwx.info

Track history (hours):
 
Tides and Currents Weather Stations Pressure Air Temp Water Temp Dewpoint Dewpoint Depression Visibility Wind Speed Wind Dir Waves Ship Positions

Alm Zurich

Last reported at 2016-Jun-23 23:29 UTC. Time now 2016-Jun-30 01:36 UTC.
Position N 08°49' W 079°32'.

Length 294 m; draft 6.5 m.

Type: Cargo ship. MMSI: 538002956.

Date/timePositionNaut miles runAvg speedWind from/ knotsBaromVisibWave heightAir tempDewpointWater temp
2016-Jun-23 23:29N 08°49' W 079°32'0 0.0
2016-Jun-23 22:05N 08°49' W 079°32'0 0.1
2016-Jun-23 21:32N 08°50' W 079°32'0 0.0
2016-Jun-23 18:17N 08°50' W 079°32'3 0.6
2016-Jun-23 13:20N 08°52' W 079°30'7 8.9
2016-Jun-23 12:33N 08°57' W 079°34'0 0.2
2016-Jun-23 10:30N 08°58' W 079°34'0 0.0
2016-Jun-23 09:06N 08°58' W 079°34'0 0.0
2016-Jun-23 08:23N 08°58' W 079°34'0 0.0
2016-Jun-23 07:26N 08°58' W 079°34'0 0.0
2016-Jun-23 02:32N 08°58' W 079°34'0 0.0
2016-Jun-22 23:07N 08°58' W 079°34'0 0.1
2016-Jun-22 22:33N 08°58' W 079°34'5 5.1
2016-Jun-22 21:32N 08°53' W 079°31'4 2.8
2016-Jun-22 20:13N 08°51' W 079°28'0 0.0
2016-Jun-22 19:24N 08°51' W 079°28'0 0.0
2016-Jun-22 17:20N 08°51' W 079°28'  
Track history (hours):
 
Tides and Currents Weather Stations Pressure Air Temp Water Temp Dewpoint Dewpoint Depression Visibility Wind Speed Wind Dir Waves Ship Positions

Alm Zurich

Last reported at 2016-Jun-23 23:29 UTC. Time now 2016-Jun-30 01:36 UTC.
Position N 08°49' W 079°32'.

Length 294 m; draft 6.5 m.

Type: Cargo ship. MMSI: 538002956.

Date/timePositionNaut miles runAvg speedWind from/ knotsBaromVisibWave heightAir tempDewpointWater temp
2016-Jun-23 23:29N 08°49' W 079°32'0 0.0
2016-Jun-23 22:05N 08°49' W 079°32'0 0.1
2016-Jun-23 21:32N 08°50' W 079°32'0 0.0
2016-Jun-23 18:17N 08°50' W 079°32'3 0.6
2016-Jun-23 13:20N 08°52' W 079°30'7 8.9
2016-Jun-23 12:33N 08°57' W 079°34'0 0.2
2016-Jun-23 10:30N 08°58' W 079°34'0 0.0
2016-Jun-23 09:06N 08°58' W 079°34'0 0.0
2016-Jun-23 08:23N 08°58' W 079°34'0 0.0
2016-Jun-23 07:26N 08°58' W 079°34'0 0.0
2016-Jun-23 02:32N 08°58' W 079°34'0 0.0
2016-Jun-22 23:07N 08°58' W 079°34'0 0.1
2016-Jun-22 22:33N 08°58' W 079°34'5 5.1
2016-Jun-22 21:32N 08°53' W 079°31'4 2.8
2016-Jun-22 20:13N 08°51' W 079°28'0 0.0
2016-Jun-22 19:24N 08°51' W 079°28'0 0.0
2016-Jun-22 17:20N 08°51' W 079°28'  

Dump ship's entire track history